Hinton, OK

5:11 AM CDT on May 06, 2015 (GMT -0500)
Watonga | | Change Station
CLOSE
Current Station
Airport
Location: Watonga,
Elevation: 1549 ft
Nearby Weather Stations

Elev 1549 ft 35.86 °N, 98.42 °W | Updated 36 minutes ago

Overcast
Overcast
59 °F
Feels Like 59 °F
N
7
Wind Variable Wind from South

Today
High -- | Low -- °F
--% Chance of Precip.
Yesterday
High -- | Low -- °F
Precip. -- in
6:36 AM 8:23 PM
Waning Gibbous, 95% visible
Pressure 29.85 in
Visibility 10.0 miles
Clouds Mostly Cloudy 2200 ft
Mostly Cloudy 3100 ft
Overcast 5000 ft
Dew Point 59 °F
Humidity 100%
Rainfall 0.38 in
Snow Depth Not available.
UV 0 out of 12
Pollen 8.10 out of 12
Air Quality Not available.
Flu Activity Local Activity
METAR KJWG 060935Z AUTO 17006KT 10SM BKN022 BKN031 OVC050 15/15 A2985 RMK AO2 T01480148

More Conditions Fewer Conditions

Pressure 29.85 in
Visibility 10.0 miles
Clouds Mostly Cloudy 2200 ft
Mostly Cloudy 3100 ft
Overcast 5000 ft
Dew Point 59 °F
Humidity 100%
Rainfall 0.38 in
Snow Depth Not available.
UV 0 out of 12
Pollen 8.10 out of 12
Air Quality Not available.
Flu Activity Local Activity
METAR KJWG 060935Z AUTO 17006KT 10SM BKN022 BKN031 OVC050 15/15 A2985 RMK AO2 T01480148

More Conditions Fewer Conditions

10-Day Weather Forecast

Almanac

Astronomy

May. 06, 2015 Rise Set
Actual Time
Civil Twilight
Nautical Twilight
Astronomical Twilight
Moon
Length of Visible Light
Length of Day
Tomorrow will be .
, % of the Moon is Illuminated

Today's Extremes

State Highs State Lows

Community

WunderPhotos

Upload Photos

1,818,859 photos uploaded!

WunderBlogs® & News

Nearby

Air Quality

  Air Quality AQ Index Pollutant
Not available.

Snow Depth

Station Depth Elevation

Earthquake Activity

City Distance Mag. Time & Date
Minimum magnitude displayed is 2.5.

Coastal Water Temperatures

Place Temperature

Stations

Nearby Weather Stations

Station Location Temp. Windchill Dew Point Humidity Wind Precip. Elev Updated Type